Time;durP1;ratioP1;P1;durP2;ratioP2;P2;SDS_P1;SDS_P2;PMS_P1;PMS_P2;Temp;Humidity;BMP_temperature;BMP_pressure;BME280_temperature;BME280_humidity;BME280_pressure;Samples;Min_cycle;Max_cycle;Signal;HPM_P1;HPM_P2
2021/09/01 00:02:27;0.00;0.00;0.62;0.00;0.00;0.62;10.27;5.10;;;25.30;36.30;;;;;;2245166;61;20445;-62
2021/09/01 00:05:12;0.00;0.00;0.62;0.00;0.00;0.62;7.90;4.80;;;25.30;36.30;;;;;;2245820;61;20398;-62
2021/09/01 00:07:58;0.00;0.00;0.62;0.00;0.00;0.62;11.40;5.03;;;25.30;36.40;;;;;;2244731;61;20512;-63
2021/09/01 00:10:42;0.00;0.00;0.62;0.00;0.00;0.62;14.57;5.77;;;25.20;36.40;;;;;;2245724;61;20369;-62
2021/09/01 00:13:27;0.00;0.00;0.62;0.00;0.00;0.62;8.47;5.50;;;25.20;36.50;;;;;;2245887;61;20369;-61
2021/09/01 00:16:25;0.00;0.00;0.62;0.00;0.00;0.62;8.97;5.33;;;25.10;36.60;;;;;;2244487;61;20450;-62
2021/09/01 00:19:12;0.00;0.00;0.62;0.00;0.00;0.62;10.30;5.17;;;25.10;36.70;;;;;;2245850;61;20362;-62
2021/09/01 00:21:56;0.00;0.00;0.62;0.00;0.00;0.62;9.37;5.60;;;25.10;36.80;;;;;;2245544;61;20472;-62
2021/09/01 00:24:42;0.00;0.00;0.62;0.00;0.00;0.62;8.10;4.57;;;25.00;36.90;;;;;;2245169;61;20482;-62
2021/09/01 00:27:26;0.00;0.00;0.62;0.00;0.00;0.62;8.50;4.70;;;25.00;36.90;;;;;;2245757;61;20457;-62
2021/09/01 00:30:12;0.00;0.00;0.62;0.00;0.00;0.62;10.70;5.80;;;24.90;36.90;;;;;;2244822;61;20386;-62
2021/09/01 00:32:56;0.00;0.00;0.62;0.00;0.00;0.62;9.90;5.70;;;24.90;37.10;;;;;;2245774;61;20350;-62
2021/09/01 00:35:41;0.00;0.00;0.62;0.00;0.00;0.62;9.40;5.60;;;24.90;37.20;;;;;;2245665;61;20462;-61
2021/09/01 00:38:25;0.00;0.00;0.62;0.00;0.00;0.62;6.30;4.37;;;24.90;37.30;;;;;;2244618;61;20405;-62
2021/09/01 00:41:14;0.00;0.00;0.62;0.00;0.00;0.62;6.83;4.43;;;24.80;37.30;;;;;;2245561;61;20424;-62
2021/09/01 00:44:16;0.00;0.00;0.62;0.00;0.00;0.62;7.90;5.00;;;24.80;37.30;;;;;;2245609;61;20734;-60
2021/09/01 00:47:02;0.00;0.00;0.62;0.00;0.00;0.62;10.00;5.20;;;24.80;37.30;;;;;;2245064;61;20409;-62
2021/09/01 00:49:48;0.00;0.00;0.62;0.00;0.00;0.62;8.27;5.60;;;24.80;37.30;;;;;;2245678;61;20365;-60
2021/09/01 00:52:37;0.00;0.00;0.62;0.00;0.00;0.62;9.40;5.00;;;24.70;37.30;;;;;;2244512;61;20500;-60
2021/09/01 00:55:22;0.00;0.00;0.62;0.00;0.00;0.62;10.80;6.17;;;24.80;37.40;;;;;;2245763;61;20397;-62
2021/09/01 00:58:09;0.00;0.00;0.62;0.00;0.00;0.62;11.93;5.80;;;24.70;37.30;;;;;;2245736;61;20401;-61
2021/09/01 01:01:15;0.00;0.00;0.62;0.00;0.00;0.62;9.67;5.40;;;24.70;37.40;;;;;;2244613;61;20401;-63
2021/09/01 01:03:59;0.00;0.00;0.62;0.00;0.00;0.62;7.73;4.90;;;24.70;37.40;;;;;;2245569;61;20356;-62
2021/09/01 01:06:44;0.00;0.00;0.62;0.00;0.00;0.62;7.60;5.03;;;24.60;37.40;;;;;;2245280;61;20393;-63
2021/09/01 01:09:29;0.00;0.00;0.62;0.00;0.00;0.62;11.07;5.23;;;24.60;37.50;;;;;;2245658;61;20354;-62
2021/09/01 01:12:21;0.00;0.00;0.62;0.00;0.00;0.62;8.47;5.10;;;24.60;37.60;;;;;;2245588;61;20472;-63
2021/09/01 01:15:09;0.00;0.00;0.62;0.00;0.00;0.62;6.13;4.60;;;24.60;37.60;;;;;;2244661;61;20510;-63
2021/09/01 01:17:53;0.00;0.00;0.62;0.00;0.00;0.62;10.10;5.93;;;24.60;37.70;;;;;;2245674;61;20361;-63
2021/09/01 01:20:39;0.00;0.00;0.62;0.00;0.00;0.62;7.70;4.70;;;24.60;37.80;;;;;;2245357;61;20669;-62
2021/09/01 01:23:25;0.00;0.00;0.62;0.00;0.00;0.62;9.00;6.27;;;24.60;37.80;;;;;;2244790;61;20376;-63
2021/09/01 01:26:11;0.00;0.00;0.62;0.00;0.00;0.62;11.33;5.73;;;24.60;37.80;;;;;;2245576;61;20629;-63
2021/09/01 01:28:59;0.00;0.00;0.62;0.00;0.00;0.62;9.13;4.80;;;24.60;37.80;;;;;;2245189;61;20450;-62
2021/09/01 01:31:43;0.00;0.00;0.62;0.00;0.00;0.62;6.33;4.70;;;24.60;37.70;;;;;;2245417;61;20662;-62
2021/09/01 01:34:28;0.00;0.00;0.62;0.00;0.00;0.62;10.20;4.97;;;24.60;37.70;;;;;;2245484;61;20647;-63
2021/09/01 01:37:12;0.00;0.00;0.62;0.00;0.00;0.62;6.30;4.93;;;24.60;37.70;;;;;;2244603;61;20426;-63
2021/09/01 01:39:57;0.00;0.00;0.62;0.00;0.00;0.62;11.33;5.47;;;24.60;37.60;;;;;;2245471;61;20393;-62
2021/09/01 01:42:43;0.00;0.00;0.62;0.00;0.00;0.62;8.90;5.60;;;24.60;37.60;;;;;;2245582;61;20769;-62
2021/09/01 01:45:34;0.00;0.00;0.62;0.00;0.00;0.62;8.20;4.50;;;24.60;37.60;;;;;;2244610;61;20378;-62
2021/09/01 01:48:19;0.00;0.00;0.62;0.00;0.00;0.62;6.73;5.23;;;24.60;37.60;;;;;;2245397;61;20385;-62
2021/09/01 01:51:04;0.00;0.00;0.62;0.00;0.00;0.62;6.43;4.93;;;24.60;37.60;;;;;;2245276;61;20802;-63
2021/09/01 01:53:48;0.00;0.00;0.62;0.00;0.00;0.62;9.40;5.13;;;24.60;37.70;;;;;;2245406;61;20421;-62
2021/09/01 01:56:33;0.00;0.00;0.62;0.00;0.00;0.62;11.23;5.40;;;24.60;37.60;;;;;;2246213;61;20493;-62
2021/09/01 01:59:19;0.00;0.00;0.62;0.00;0.00;0.62;11.67;5.10;;;24.60;37.70;;;;;;2245286;61;20361;-62
2021/09/01 02:02:04;0.00;0.00;0.62;0.00;0.00;0.62;6.13;5.23;;;24.60;37.70;;;;;;2246184;61;20469;-63
2021/09/01 02:04:49;0.00;0.00;0.62;0.00;0.00;0.62;9.67;5.57;;;24.60;37.60;;;;;;2246197;61;20413;-61
2021/09/01 02:07:34;0.00;0.00;0.62;0.00;0.00;0.62;6.80;5.00;;;24.60;37.60;;;;;;2245256;61;20393;-62
2021/09/01 02:10:19;0.00;0.00;0.62;0.00;0.00;0.62;9.20;4.93;;;24.50;37.60;;;;;;2246245;61;20368;-62
2021/09/01 02:13:03;0.00;0.00;0.62;0.00;0.00;0.62;8.57;4.80;;;24.60;37.80;;;;;;2246090;61;20721;-62
2021/09/01 02:15:49;0.00;0.00;0.62;0.00;0.00;0.62;9.73;5.33;;;24.60;37.80;;;;;;2245548;61;20384;-61
2021/09/01 02:18:34;0.00;0.00;0.62;0.00;0.00;0.62;8.30;5.20;;;24.50;37.70;;;;;;2246209;61;20358;-61
2021/09/01 02:21:18;0.00;0.00;0.62;0.00;0.00;0.62;7.60;4.83;;;24.50;37.70;;;;;;2244995;61;20757;-62
2021/09/01 02:24:04;0.00;0.00;0.62;0.00;0.00;0.62;11.23;4.57;;;24.50;37.80;;;;;;2246057;61;20401;-61
2021/09/01 02:26:48;0.00;0.00;0.62;0.00;0.00;0.62;7.83;4.90;;;24.50;37.80;;;;;;2246150;61;20390;-62
2021/09/01 02:29:33;0.00;0.00;0.62;0.00;0.00;0.62;5.17;3.90;;;24.50;37.80;;;;;;2244778;61;20631;-62
2021/09/01 02:32:19;0.00;0.00;0.62;0.00;0.00;0.62;8.30;4.30;;;24.50;37.80;;;;;;2246156;61;20398;-62
2021/09/01 02:35:05;0.00;0.00;0.62;0.00;0.00;0.62;5.80;4.50;;;24.50;37.80;;;;;;2245948;61;20373;-62
2021/09/01 02:37:52;0.00;0.00;0.62;0.00;0.00;0.62;9.10;4.37;;;24.50;37.80;;;;;;2245178;61;20413;-61
2021/09/01 02:40:36;0.00;0.00;0.62;0.00;0.00;0.62;6.23;4.13;;;24.50;38.50;;;;;;2246032;61;20365;-62
2021/09/01 02:43:21;0.00;0.00;0.62;0.00;0.00;0.62;6.93;4.67;;;24.50;37.80;;;;;;2245498;61;20369;-62
2021/09/01 02:46:06;0.00;0.00;0.62;0.00;0.00;0.62;7.63;4.77;;;24.50;37.80;;;;;;2245999;61;20360;-62
2021/09/01 02:48:52;0.00;0.00;0.62;0.00;0.00;0.62;8.00;4.33;;;24.50;37.80;;;;;;2246100;61;20398;-62
2021/09/01 02:51:37;0.00;0.00;0.62;0.00;0.00;0.62;10.10;4.63;;;24.50;37.80;;;;;;2244738;61;20769;-61
2021/09/01 02:54:22;0.00;0.00;0.62;0.00;0.00;0.62;10.73;5.13;;;24.50;37.80;;;;;;2246022;61;20410;-61
2021/09/01 02:57:06;0.00;0.00;0.62;0.00;0.00;0.62;9.10;4.60;;;24.50;37.80;;;;;;2246112;61;20382;-62
2021/09/01 02:59:51;0.00;0.00;0.62;0.00;0.00;0.62;9.33;4.60;;;24.60;37.80;;;;;;2245086;61;20362;-62
2021/09/01 03:02:35;0.00;0.00;0.62;0.00;0.00;0.62;9.50;5.00;;;24.60;37.80;;;;;;2246189;61;20385;-62
2021/09/01 03:05:22;0.00;0.00;0.62;0.00;0.00;0.62;8.57;4.63;;;24.60;37.80;;;;;;2242016;61;20366;-62
2021/09/01 03:08:08;0.00;0.00;0.62;0.00;0.00;0.62;8.50;4.83;;;24.50;37.70;;;;;;2245951;61;20768;-63
2021/09/01 03:10:52;0.00;0.00;0.62;0.00;0.00;0.62;7.87;4.50;;;24.50;37.50;;;;;;2245986;61;20406;-62
2021/09/01 03:13:37;0.00;0.00;0.62;0.00;0.00;0.62;9.70;4.07;;;24.50;37.50;;;;;;2244916;61;20417;-62
2021/09/01 03:16:21;0.00;0.00;0.62;0.00;0.00;0.62;8.97;4.53;;;24.50;37.60;;;;;;2246056;61;20406;-62
2021/09/01 03:19:06;0.00;0.00;0.62;0.00;0.00;0.62;6.73;4.20;;;24.50;37.70;;;;;;2246031;61;20358;-62
2021/09/01 03:21:52;0.00;0.00;0.62;0.00;0.00;0.62;6.47;4.33;;;24.50;37.70;;;;;;2244936;61;20602;-62
2021/09/01 03:24:36;0.00;0.00;0.62;0.00;0.00;0.62;6.17;4.60;;;24.50;37.70;;;;;;2246076;61;20368;-62
2021/09/01 03:27:21;0.00;0.00;0.62;0.00;0.00;0.62;8.07;4.80;;;24.40;37.70;;;;;;2242349;61;20434;-61
2021/09/01 03:30:07;0.00;0.00;0.62;0.00;0.00;0.62;9.07;4.50;;;24.40;37.70;;;;;;2245758;61;20386;-62
2021/09/01 03:32:52;0.00;0.00;0.62;0.00;0.00;0.62;7.90;4.40;;;24.40;37.70;;;;;;2245989;61;20373;-62
2021/09/01 03:35:36;0.00;0.00;0.62;0.00;0.00;0.62;7.77;5.20;;;24.40;37.70;;;;;;2244717;61;20397;-62
2021/09/01 03:38:22;0.00;0.00;0.62;0.00;0.00;0.62;6.80;4.20;;;24.40;37.70;;;;;;2245945;61;20365;-62
2021/09/01 03:41:07;0.00;0.00;0.62;0.00;0.00;0.62;8.63;5.10;;;24.40;37.70;;;;;;2245419;61;20452;-62
2021/09/01 03:43:51;0.00;0.00;0.62;0.00;0.00;0.62;7.97;4.37;;;24.40;37.70;;;;;;2244849;61;20420;-62
2021/09/01 03:46:36;0.00;0.00;0.62;0.00;0.00;0.62;7.33;4.73;;;24.30;37.60;;;;;;2245947;61;20370;-62
2021/09/01 03:49:20;0.00;0.00;0.62;0.00;0.00;0.62;9.13;4.20;;;24.30;37.70;;;;;;2245442;61;20630;-61
2021/09/01 03:52:05;0.00;0.00;0.62;0.00;0.00;0.62;8.57;4.77;;;24.30;37.80;;;;;;2245208;61;20627;-61
2021/09/01 03:54:51;0.00;0.00;0.62;0.00;0.00;0.62;8.13;4.80;;;24.20;37.80;;;;;;2245743;61;20381;-62
2021/09/01 03:57:37;0.00;0.00;0.62;0.00;0.00;0.62;13.03;4.40;;;24.20;37.90;;;;;;2244789;61;20365;-62
2021/09/01 04:00:21;0.00;0.00;0.62;0.00;0.00;0.62;9.13;4.67;;;24.20;38.00;;;;;;2245892;61;20385;-62
2021/09/01 04:03:05;0.00;0.00;0.62;0.00;0.00;0.62;5.70;4.23;;;24.10;37.90;;;;;;2245680;61;20361;-62
2021/09/01 04:05:50;0.00;0.00;0.62;0.00;0.00;0.62;12.93;5.80;;;24.10;38.00;;;;;;2241646;61;20396;-61
2021/09/01 04:08:37;0.00;0.00;0.62;0.00;0.00;0.62;8.63;4.87;;;24.10;38.00;;;;;;2245826;61;20611;-62
2021/09/01 04:11:23;0.00;0.00;0.62;0.00;0.00;0.62;9.90;4.37;;;24.10;38.10;;;;;;2245358;61;20386;-62
2021/09/01 04:14:07;0.00;0.00;0.62;0.00;0.00;0.62;7.07;4.60;;;24.00;38.00;;;;;;2245156;61;20365;-61
2021/09/01 04:16:52;0.00;0.00;0.62;0.00;0.00;0.62;13.37;5.50;;;24.00;38.20;;;;;;2245603;61;20366;-63
2021/09/01 04:19:36;0.00;0.00;0.62;0.00;0.00;0.62;9.70;4.57;;;24.00;38.20;;;;;;2244777;61;20425;-63
2021/09/01 04:22:21;0.00;0.00;0.62;0.00;0.00;0.62;12.10;4.80;;;24.00;38.30;;;;;;2245914;61;20655;-60
2021/09/01 04:25:08;0.00;0.00;0.62;0.00;0.00;0.62;6.90;4.97;;;23.90;38.20;;;;;;2245638;61;20360;-62
2021/09/01 04:27:54;0.00;0.00;0.62;0.00;0.00;0.62;11.77;4.63;;;23.90;38.20;;;;;;2244620;61;20381;-61
2021/09/01 04:30:38;0.00;0.00;0.62;0.00;0.00;0.62;7.77;4.37;;;23.90;38.30;;;;;;2245614;61;20439;-60
2021/09/01 04:33:23;0.00;0.00;0.62;0.00;0.00;0.62;7.13;4.53;;;23.90;38.30;;;;;;2245707;61;20414;-63
2021/09/01 04:36:07;0.00;0.00;0.62;0.00;0.00;0.62;7.80;3.90;;;23.90;38.30;;;;;;2245021;61;20422;-63
2021/09/01 04:38:52;0.00;0.00;0.62;0.00;0.00;0.62;8.80;4.60;;;23.90;38.30;;;;;;2245617;61;20365;-62
2021/09/01 04:41:36;0.00;0.00;0.62;0.00;0.00;0.62;8.07;4.67;;;23.80;38.30;;;;;;2244824;61;20385;-62
2021/09/01 04:44:22;0.00;0.00;0.62;0.00;0.00;0.62;7.83;4.17;;;23.80;38.40;;;;;;2245737;61;20365;-62
2021/09/01 04:47:06;0.00;0.00;0.62;0.00;0.00;0.62;6.60;3.83;;;23.80;38.40;;;;;;2245475;61;20576;-62
2021/09/01 04:49:51;0.00;0.00;0.62;0.00;0.00;0.62;9.77;4.70;;;23.80;38.40;;;;;;2244584;61;20357;-63
2021/09/01 04:52:36;0.00;0.00;0.62;0.00;0.00;0.62;6.30;3.87;;;23.80;38.60;;;;;;2245526;61;20409;-62
2021/09/01 04:55:20;0.00;0.00;0.62;0.00;0.00;0.62;8.60;4.07;;;23.80;38.50;;;;;;2245663;61;20396;-62
2021/09/01 04:58:05;0.00;0.00;0.62;0.00;0.00;0.62;6.20;3.53;;;23.80;38.50;;;;;;2244870;61;20374;-61
2021/09/01 05:00:51;0.00;0.00;0.62;0.00;0.00;0.62;5.90;3.93;;;23.70;38.60;;;;;;2245517;61;20416;-60
2021/09/01 05:03:35;0.00;0.00;0.62;0.00;0.00;0.62;6.57;3.73;;;23.70;38.50;;;;;;2245298;61;20374;-63
2021/09/01 05:06:20;0.00;0.00;0.62;0.00;0.00;0.62;9.23;4.40;;;23.70;38.70;;;;;;2245439;61;20589;-62
2021/09/01 05:09:04;0.00;0.00;0.62;0.00;0.00;0.62;8.00;4.50;;;23.70;38.60;;;;;;2245849;61;20611;-63
2021/09/01 05:11:49;0.00;0.00;0.62;0.00;0.00;0.62;11.77;5.33;;;23.70;38.70;;;;;;2244365;61;20389;-60
2021/09/01 05:14:33;0.00;0.00;0.62;0.00;0.00;0.62;7.37;4.50;;;23.70;38.70;;;;;;2245553;61;20365;-63
2021/09/01 05:17:20;0.00;0.00;0.62;0.00;0.00;0.62;7.90;4.33;;;23.70;38.70;;;;;;2245720;61;20737;-63
2021/09/01 05:20:05;0.00;0.00;0.62;0.00;0.00;0.62;7.77;4.63;;;23.70;38.70;;;;;;2244502;61;20418;-62
2021/09/01 05:22:58;0.00;0.00;0.62;0.00;0.00;0.62;7.30;5.50;;;23.70;38.70;;;;;;2245775;61;20381;-62
2021/09/01 05:25:55;0.00;0.00;0.62;0.00;0.00;0.62;10.73;4.77;;;23.70;38.70;;;;;;2245337;61;20438;-63
2021/09/01 05:28:40;0.00;0.00;0.62;0.00;0.00;0.62;8.97;4.90;;;23.70;38.70;;;;;;2245331;61;20737;-62
2021/09/01 05:31:30;0.00;0.00;0.62;0.00;0.00;0.62;8.87;4.47;;;23.70;38.70;;;;;;2246313;61;20400;-63
2021/09/01 05:34:19;0.00;0.00;0.62;0.00;0.00;0.62;7.67;4.20;;;23.70;38.70;;;;;;2245124;61;20362;-62
2021/09/01 05:37:04;0.00;0.00;0.62;0.00;0.00;0.62;6.87;4.47;;;23.70;38.70;;;;;;2246259;61;20487;-63
2021/09/01 05:39:52;0.00;0.00;0.62;0.00;0.00;0.62;7.67;4.47;;;23.70;38.70;;;;;;2246221;61;20365;-63
2021/09/01 05:42:37;0.00;0.00;0.62;0.00;0.00;0.62;7.43;4.63;;;23.70;38.70;;;;;;2242237;61;20465;-63
2021/09/01 05:45:22;0.00;0.00;0.62;0.00;0.00;0.62;15.60;4.97;;;23.70;38.70;;;;;;2246307;61;20369;-63
2021/09/01 05:48:08;0.00;0.00;0.62;0.00;0.00;0.62;8.23;4.57;;;23.70;38.70;;;;;;2245577;61;20393;-63
2021/09/01 05:50:56;0.00;0.00;0.62;0.00;0.00;0.62;5.00;3.83;;;23.70;38.70;;;;;;2242953;61;20429;-61
2021/09/01 05:53:41;0.00;0.00;0.62;0.00;0.00;0.62;6.50;3.83;;;23.70;38.70;;;;;;2245855;61;20369;-63
2021/09/01 05:56:34;0.00;0.00;0.62;0.00;0.00;0.62;6.47;4.20;;;23.70;38.70;;;;;;2245104;61;20413;-62
2021/09/01 05:59:21;0.00;0.00;0.62;0.00;0.00;0.62;6.20;4.90;;;23.70;38.70;;;;;;2246384;61;20357;-63
2021/09/01 06:02:10;0.00;0.00;0.62;0.00;0.00;0.62;7.03;4.03;;;23.70;38.70;;;;;;2246151;61;20381;-62
2021/09/01 06:04:58;0.00;0.00;0.62;0.00;0.00;0.62;6.63;4.60;;;23.70;38.70;;;;;;2245356;61;20362;-63
2021/09/01 06:07:50;0.00;0.00;0.62;0.00;0.00;0.62;6.90;4.40;;;23.70;38.70;;;;;;2246366;61;20369;-62
2021/09/01 06:10:37;0.00;0.00;0.62;0.00;0.00;0.62;5.80;4.73;;;23.70;38.70;;;;;;2245111;61;20369;-63
2021/09/01 06:13:22;0.00;0.00;0.62;0.00;0.00;0.62;7.30;4.13;;;23.70;38.70;;;;;;2246325;61;20571;-62
2021/09/01 06:16:06;0.00;0.00;0.62;0.00;0.00;0.62;6.73;4.67;;;23.70;38.70;;;;;;2246091;61;20580;-62
2021/09/01 06:18:51;0.00;0.00;0.62;0.00;0.00;0.62;9.90;4.33;;;23.70;38.70;;;;;;2245068;61;20365;-63
2021/09/01 06:21:35;0.00;0.00;0.62;0.00;0.00;0.62;7.77;5.03;;;23.80;38.80;;;;;;2246115;61;20385;-62
2021/09/01 06:24:21;0.00;0.00;0.62;0.00;0.00;0.62;9.23;4.27;;;23.80;38.80;;;;;;2246131;61;20745;-62
2021/09/01 06:27:06;0.00;0.00;0.62;0.00;0.00;0.62;9.90;5.10;;;23.80;38.80;;;;;;2245320;61;20354;-61
2021/09/01 06:29:50;0.00;0.00;0.62;0.00;0.00;0.62;5.87;3.47;;;23.80;38.80;;;;;;2246057;61;20389;-62
2021/09/01 06:32:35;0.00;0.00;0.62;0.00;0.00;0.62;8.67;4.43;;;23.80;39.50;;;;;;2245137;61;20466;-59
2021/09/01 06:35:20;0.00;0.00;0.62;0.00;0.00;0.62;9.63;5.23;;;23.80;38.80;;;;;;2246146;61;20434;-60
2021/09/01 06:38:06;0.00;0.00;0.62;0.00;0.00;0.62;5.73;3.80;;;23.80;38.80;;;;;;2246054;61;20362;-60
2021/09/01 06:40:52;0.00;0.00;0.62;0.00;0.00;0.62;6.57;4.30;;;23.90;38.90;;;;;;2244878;61;20595;-62
2021/09/01 06:43:36;0.00;0.00;0.62;0.00;0.00;0.62;6.87;4.10;;;23.90;38.90;;;;;;2246103;61;20365;-63
2021/09/01 06:46:21;0.00;0.00;0.62;0.00;0.00;0.62;6.90;3.77;;;23.90;38.90;;;;;;2246042;61;20498;-63
2021/09/01 06:49:05;0.00;0.00;0.62;0.00;0.00;0.62;7.83;4.03;;;24.00;39.00;;;;;;2245274;61;20421;-62
2021/09/01 06:51:50;0.00;0.00;0.62;0.00;0.00;0.62;8.03;4.80;;;24.00;39.00;;;;;;2245757;61;20441;-62
2021/09/01 06:54:34;0.00;0.00;0.62;0.00;0.00;0.62;5.43;3.50;;;24.00;39.00;;;;;;2245640;61;20364;-62
2021/09/01 06:57:20;0.00;0.00;0.62;0.00;0.00;0.62;5.97;4.10;;;24.10;39.10;;;;;;2245932;61;20409;-61
2021/09/01 07:00:08;0.00;0.00;0.62;0.00;0.00;0.62;5.40;3.70;;;24.10;39.10;;;;;;2242779;61;20358;-61
2021/09/01 07:02:52;0.00;0.00;0.62;0.00;0.00;0.62;10.00;4.53;;;24.10;39.10;;;;;;2245033;61;20370;-61
2021/09/01 07:05:37;0.00;0.00;0.62;0.00;0.00;0.62;5.13;3.73;;;24.20;39.10;;;;;;2246020;61;20754;-61
2021/09/01 07:08:23;0.00;0.00;0.62;0.00;0.00;0.62;6.90;4.37;;;24.20;39.10;;;;;;2242799;61;20385;-61
2021/09/01 07:11:07;0.00;0.00;0.62;0.00;0.00;0.62;6.37;4.40;;;24.20;39.10;;;;;;2244793;61;20469;-60
2021/09/01 07:13:53;0.00;0.00;0.62;0.00;0.00;0.62;6.40;4.87;;;24.30;39.20;;;;;;2245872;61;20475;-62
2021/09/01 07:16:37;0.00;0.00;0.62;0.00;0.00;0.62;5.63;3.90;;;24.30;39.20;;;;;;2242642;61;20487;-61
2021/09/01 07:19:22;0.00;0.00;0.62;0.00;0.00;0.62;6.33;3.70;;;24.30;39.20;;;;;;2245688;61;20588;-66
2021/09/01 07:22:07;0.00;0.00;0.62;0.00;0.00;0.62;7.03;3.97;;;24.40;39.30;;;;;;2245850;61;20385;-61
2021/09/01 07:24:51;0.00;0.00;0.62;0.00;0.00;0.62;9.30;3.83;;;24.40;39.20;;;;;;2245022;61;20413;-60
2021/09/01 07:27:36;0.00;0.00;0.62;0.00;0.00;0.62;6.07;3.67;;;24.50;39.20;;;;;;2245940;61;20402;-60
2021/09/01 07:30:22;0.00;0.00;0.62;0.00;0.00;0.62;5.10;3.77;;;24.50;39.20;;;;;;2245885;61;20361;-61
2021/09/01 07:33:07;0.00;0.00;0.62;0.00;0.00;0.62;6.40;4.20;;;24.50;39.10;;;;;;2245001;61;20366;-62
2021/09/01 07:35:51;0.00;0.00;0.62;0.00;0.00;0.62;6.00;4.10;;;24.50;39.10;;;;;;2245958;61;20396;-60
2021/09/01 07:38:36;0.00;0.00;0.62;0.00;0.00;0.62;7.30;4.20;;;24.60;39.10;;;;;;2245928;61;20767;-61
2021/09/01 07:41:20;0.00;0.00;0.62;0.00;0.00;0.62;6.97;3.90;;;24.60;39.00;;;;;;2245200;61;20802;-61
2021/09/01 07:44:05;0.00;0.00;0.62;0.00;0.00;0.62;8.40;4.80;;;24.60;38.90;;;;;;2245729;61;20474;-61
2021/09/01 07:46:51;0.00;0.00;0.62;0.00;0.00;0.62;7.93;4.80;;;24.70;39.00;;;;;;2244820;61;20481;-61
2021/09/01 07:49:36;0.00;0.00;0.62;0.00;0.00;0.62;8.93;5.13;;;24.70;39.00;;;;;;2245790;61;20393;-63
2021/09/01 07:52:20;0.00;0.00;0.62;0.00;0.00;0.62;6.00;4.53;;;24.70;39.00;;;;;;2245545;61;20437;-60
2021/09/01 07:55:06;0.00;0.00;0.62;0.00;0.00;0.62;5.67;4.10;;;24.70;38.90;;;;;;2244678;61;20393;-61
2021/09/01 07:57:51;0.00;0.00;0.62;0.00;0.00;0.62;6.57;4.70;;;24.70;38.80;;;;;;2245741;61;20705;-62
2021/09/01 08:00:35;0.00;0.00;0.62;0.00;0.00;0.62;6.13;4.30;;;24.80;38.80;;;;;;2245690;61;20409;-63
2021/09/01 08:03:21;0.00;0.00;0.62;0.00;0.00;0.62;4.83;4.23;;;24.80;38.80;;;;;;2245089;61;20365;-60
2021/09/01 08:06:07;0.00;0.00;0.62;0.00;0.00;0.62;5.80;4.67;;;24.80;38.80;;;;;;2245869;61;20830;-61
2021/09/01 08:08:52;0.00;0.00;0.62;0.00;0.00;0.62;6.13;4.10;;;24.90;38.80;;;;;;2244932;61;20637;-61
2021/09/01 08:11:36;0.00;0.00;0.62;0.00;0.00;0.62;5.13;4.57;;;24.90;38.70;;;;;;2245727;61;20425;-60
2021/09/01 08:14:21;0.00;0.00;0.62;0.00;0.00;0.62;7.60;5.30;;;24.90;38.60;;;;;;2245862;61;20365;-61
2021/09/01 08:17:05;0.00;0.00;0.62;0.00;0.00;0.62;5.73;4.70;;;24.90;38.50;;;;;;2244689;61;20370;-61
2021/09/01 08:19:51;0.00;0.00;0.62;0.00;0.00;0.62;8.60;5.40;;;24.90;38.40;;;;;;2245711;61;20389;-62
2021/09/01 08:22:35;0.00;0.00;0.62;0.00;0.00;0.62;12.23;5.30;;;25.00;38.50;;;;;;2245819;61;20761;-60
2021/09/01 08:25:21;0.00;0.00;0.62;0.00;0.00;0.62;7.57;5.40;;;25.00;38.30;;;;;;2245154;61;20377;-60
2021/09/01 08:28:06;0.00;0.00;0.62;0.00;0.00;0.62;7.83;5.40;;;25.00;38.20;;;;;;2245761;61;20503;-61
2021/09/01 08:30:50;0.00;0.00;0.62;0.00;0.00;0.62;7.40;5.10;;;25.00;38.30;;;;;;2245235;61;20662;-62
2021/09/01 08:33:35;0.00;0.00;0.62;0.00;0.00;0.62;5.50;4.63;;;25.00;38.30;;;;;;2245676;61;20474;-60
2021/09/01 08:36:21;0.00;0.00;0.62;0.00;0.00;0.62;10.93;6.07;;;25.00;38.30;;;;;;2245730;61;20353;-62
2021/09/01 08:39:05;0.00;0.00;0.62;0.00;0.00;0.62;8.53;5.43;;;25.00;38.30;;;;;;2244704;61;20494;-61
2021/09/01 08:41:52;0.00;0.00;0.62;0.00;0.00;0.62;6.97;4.87;;;25.10;38.30;;;;;;2245687;61;20421;-62
2021/09/01 08:44:36;0.00;0.00;0.62;0.00;0.00;0.62;8.13;5.27;;;25.10;38.30;;;;;;2245609;61;20361;-62
2021/09/01 08:47:21;0.00;0.00;0.62;0.00;0.00;0.62;8.93;5.13;;;25.10;38.10;;;;;;2244669;61;20729;-59
2021/09/01 08:50:10;0.00;0.00;0.62;0.00;0.00;0.62;6.40;4.80;;;25.10;38.10;;;;;;2245722;61;20393;-62
2021/09/01 08:52:56;0.00;0.00;0.62;0.00;0.00;0.62;9.60;4.93;;;25.10;38.00;;;;;;2245458;61;20380;-59
2021/09/01 08:55:41;0.00;0.00;0.62;0.00;0.00;0.62;12.27;5.27;;;25.10;38.00;;;;;;2245614;61;20613;-61
2021/09/01 08:58:25;0.00;0.00;0.62;0.00;0.00;0.62;9.00;4.80;;;25.20;37.80;;;;;;2245718;61;20358;-62
2021/09/01 09:01:37;0.00;0.00;0.62;0.00;0.00;0.62;9.67;4.60;;;25.10;37.60;;;;;;2244410;61;20381;-62
2021/09/01 09:04:25;0.00;0.00;0.62;0.00;0.00;0.62;9.00;4.83;;;25.10;37.50;;;;;;2246169;61;20417;-62
2021/09/01 09:07:09;0.00;0.00;0.62;0.00;0.00;0.62;7.83;4.67;;;25.10;37.40;;;;;;2246443;61;20366;-60
2021/09/01 09:09:57;0.00;0.00;0.62;0.00;0.00;0.62;9.60;5.50;;;25.10;37.30;;;;;;2245531;61;20410;-60
2021/09/01 09:12:42;0.00;0.00;0.62;0.00;0.00;0.62;8.87;5.23;;;25.10;37.10;;;;;;2246381;61;20388;-60
2021/09/01 09:15:27;0.00;0.00;0.62;0.00;0.00;0.62;7.37;5.23;;;25.10;37.10;;;;;;2245515;61;20373;-61
2021/09/01 09:18:29;0.00;0.00;0.62;0.00;0.00;0.62;8.30;5.23;;;25.10;37.20;;;;;;2246394;61;20413;-63
2021/09/01 09:21:15;0.00;0.00;0.62;0.00;0.00;0.62;6.00;5.00;;;25.10;37.20;;;;;;2246313;61;20396;-62
2021/09/01 09:24:17;0.00;0.00;0.62;0.00;0.00;0.62;8.70;5.23;;;25.10;37.30;;;;;;2245176;61;20369;-63
2021/09/01 09:27:03;0.00;0.00;0.62;0.00;0.00;0.62;6.53;4.93;;;25.10;37.40;;;;;;2246442;61;20364;-62
2021/09/01 09:29:48;0.00;0.00;0.62;0.00;0.00;0.62;8.23;4.60;;;25.10;37.40;;;;;;2245949;61;20389;-62
2021/09/01 09:32:32;0.00;0.00;0.62;0.00;0.00;0.62;6.70;4.93;;;25.10;37.40;;;;;;2245854;61;20409;-62
2021/09/01 09:35:17;0.00;0.00;0.62;0.00;0.00;0.62;5.60;3.90;;;25.10;37.40;;;;;;2246344;61;20401;-63
2021/09/01 09:38:05;0.00;0.00;0.62;0.00;0.00;0.62;7.13;4.40;;;25.20;37.50;;;;;;2245145;61;20410;-63
2021/09/01 09:40:50;0.00;0.00;0.62;0.00;0.00;0.62;6.70;4.93;;;25.20;37.50;;;;;;2246051;61;20385;-60
2021/09/01 09:43:36;0.00;0.00;0.62;0.00;0.00;0.62;6.07;4.57;;;25.20;37.50;;;;;;2246308;61;20365;-63
2021/09/01 09:46:21;0.00;0.00;0.62;0.00;0.00;0.62;7.30;4.90;;;25.20;37.50;;;;;;2245281;61;20717;-63
2021/09/01 09:49:09;0.00;0.00;0.62;0.00;0.00;0.62;7.97;4.53;;;25.30;37.60;;;;;;2246164;61;20385;-59
2021/09/01 09:51:53;0.00;0.00;0.62;0.00;0.00;0.62;6.77;4.83;;;25.20;37.40;;;;;;2245806;61;20436;-63
2021/09/01 09:54:38;0.00;0.00;0.62;0.00;0.00;0.62;7.23;4.90;;;25.30;37.50;;;;;;2245554;61;20777;-62
2021/09/01 09:57:22;0.00;0.00;0.62;0.00;0.00;0.62;9.47;5.03;;;25.30;37.40;;;;;;2246244;61;20365;-63
2021/09/01 10:00:10;0.00;0.00;0.62;0.00;0.00;0.62;6.00;4.70;;;25.40;37.40;;;;;;2245061;61;20397;-62
2021/09/01 10:02:56;0.00;0.00;0.62;0.00;0.00;0.62;5.30;3.80;;;25.40;37.40;;;;;;2246256;61;20702;-63
2021/09/01 10:05:42;0.00;0.00;0.62;0.00;0.00;0.62;4.70;3.90;;;25.40;37.30;;;;;;2246059;61;20417;-63
2021/09/01 10:08:29;0.00;0.00;0.62;0.00;0.00;0.62;6.67;4.53;;;25.40;37.30;;;;;;2245123;61;20396;-62
2021/09/01 10:11:16;0.00;0.00;0.62;0.00;0.00;0.62;6.67;5.03;;;25.50;37.30;;;;;;2246128;61;20437;-62
2021/09/01 10:14:02;0.00;0.00;0.62;0.00;0.00;0.62;8.67;5.10;;;25.50;37.30;;;;;;2245836;61;20370;-63
2021/09/01 10:16:56;0.00;0.00;0.62;0.00;0.00;0.62;7.87;4.60;;;25.40;37.10;;;;;;2245459;61;20362;-63
2021/09/01 10:19:43;0.00;0.00;0.62;0.00;0.00;0.62;6.90;5.03;;;25.50;37.10;;;;;;2246116;61;20370;-62
2021/09/01 10:22:28;0.00;0.00;0.62;0.00;0.00;0.62;6.70;4.93;;;25.50;37.10;;;;;;2245070;61;20429;-62
2021/09/01 10:25:32;0.00;0.00;0.62;0.00;0.00;0.62;5.77;4.20;;;25.50;37.10;;;;;;2246221;61;20390;-63
2021/09/01 10:28:32;0.00;0.00;0.62;0.00;0.00;0.62;8.73;5.13;;;25.50;37.10;;;;;;2246084;61;20429;-63
2021/09/01 10:31:28;0.00;0.00;0.62;0.00;0.00;0.62;7.73;4.90;;;25.50;37.10;;;;;;2242167;61;20385;-63
2021/09/01 10:34:22;0.00;0.00;0.62;0.00;0.00;0.62;4.47;4.00;;;25.50;37.10;;;;;;2246072;61;20657;-62
2021/09/01 10:37:06;0.00;0.00;0.62;0.00;0.00;0.62;5.97;4.57;;;25.60;37.20;;;;;;2244870;61;20365;-62
2021/09/01 10:39:50;0.00;0.00;0.62;0.00;0.00;0.62;7.50;4.97;;;25.70;37.20;;;;;;2246111;61;20400;-61
2021/09/01 10:42:39;0.00;0.00;0.62;0.00;0.00;0.62;7.53;5.00;;;25.60;37.10;;;;;;2246077;61;20408;-62
2021/09/01 10:45:52;0.00;0.00;0.62;0.00;0.00;0.62;5.97;4.10;;;25.70;37.10;;;;;;2245006;61;20414;-61
2021/09/01 10:48:57;0.00;0.00;0.62;0.00;0.00;0.62;6.03;4.80;;;25.70;37.10;;;;;;2245996;61;20400;-61
2021/09/01 10:51:48;0.00;0.00;0.62;0.00;0.00;0.62;7.30;4.47;;;25.70;37.10;;;;;;2245010;61;20437;-62
2021/09/01 10:54:34;0.00;0.00;0.62;0.00;0.00;0.62;9.40;5.00;;;25.80;37.10;;;;;;2246112;61;20721;-63
2021/09/01 10:57:25;0.00;0.00;0.62;0.00;0.00;0.62;6.43;4.67;;;25.80;37.10;;;;;;2246024;61;20401;-62